createdAt,value
2022-09-22T00:01:35.878Z,17.50
2022-09-22T00:04:07.357Z,17.50
2022-09-22T00:06:37.559Z,17.50
2022-09-22T00:09:09.358Z,17.40
2022-09-22T00:11:39.259Z,17.50
2022-09-22T00:14:09.322Z,17.50
2022-09-22T00:16:39.546Z,17.50
2022-09-22T00:19:08.049Z,17.60
2022-09-22T00:21:36.379Z,17.60
2022-09-22T00:24:07.420Z,17.60
2022-09-22T00:26:38.243Z,17.50
2022-09-22T00:29:09.633Z,17.40
2022-09-22T00:31:38.952Z,17.40
2022-09-22T00:34:07.665Z,17.30
2022-09-22T00:36:35.928Z,17.20
2022-09-22T00:39:03.857Z,17.30
2022-09-22T00:41:36.505Z,17.20
2022-09-22T00:44:40.745Z,17.30
2022-09-22T00:47:34.789Z,17.30
2022-09-22T00:50:11.869Z,17.50
2022-09-22T00:52:44.678Z,17.50
2022-09-22T00:55:16.088Z,17.30
2022-09-22T00:57:46.600Z,17.30
2022-09-22T01:00:17.029Z,17.40
2022-09-22T01:02:48.110Z,17.40
2022-09-22T01:05:16.848Z,17.40
2022-09-22T01:07:46.380Z,17.30
2022-09-22T01:10:14.539Z,17.20
2022-09-22T01:12:54.718Z,17.20
2022-09-22T01:15:31.796Z,17.10
2022-09-22T01:18:16.032Z,17.00
2022-09-22T01:21:21.788Z,16.80
2022-09-22T01:24:29.863Z,16.80
2022-09-22T01:27:33.271Z,16.70
2022-09-22T01:30:35.453Z,16.60
2022-09-22T01:33:20.607Z,16.50
2022-09-22T01:36:03.147Z,16.50
2022-09-22T01:38:36.208Z,16.50
2022-09-22T01:41:08.535Z,16.50
2022-09-22T01:43:44.614Z,16.40
2022-09-22T01:46:22.265Z,16.50
2022-09-22T01:48:51.707Z,16.50
2022-09-22T01:51:23.742Z,16.50
2022-09-22T01:53:54.979Z,16.40
2022-09-22T01:56:25.225Z,16.30
2022-09-22T01:58:56.673Z,16.20
2022-09-22T02:01:29.790Z,16.00
2022-09-22T02:04:04.505Z,16.00
2022-09-22T02:06:36.187Z,16.10
2022-09-22T02:09:09.392Z,16.00
2022-09-22T02:11:37.404Z,16.00
2022-09-22T02:14:06.290Z,15.90
2022-09-22T02:16:36.612Z,15.90
2022-09-22T02:19:13.337Z,15.90
2022-09-22T02:21:44.766Z,15.90
2022-09-22T02:24:27.772Z,15.80
2022-09-22T02:26:56.274Z,15.60
2022-09-22T02:29:27.165Z,15.60
2022-09-22T02:31:58.503Z,15.70
2022-09-22T02:34:26.556Z,15.60
2022-09-22T02:37:02.037Z,15.60
2022-09-22T02:39:36.070Z,15.40
2022-09-22T02:42:25.351Z,15.50
2022-09-22T02:45:00.889Z,15.60
2022-09-22T02:47:35.691Z,15.60
2022-09-22T02:50:08.842Z,15.50
2022-09-22T02:52:38.049Z,15.50
2022-09-22T02:55:06.710Z,15.50
2022-09-22T02:57:34.469Z,15.50
2022-09-22T03:00:02.401Z,15.40
2022-09-22T03:02:31.603Z,15.30
2022-09-22T03:04:59.209Z,15.30
2022-09-22T03:07:26.878Z,15.10
2022-09-22T03:09:54.553Z,15.10
2022-09-22T03:12:22.227Z,15.00
2022-09-22T03:14:52.473Z,14.90
2022-09-22T03:17:20.238Z,14.90
2022-09-22T03:19:49.364Z,14.80
2022-09-22T03:22:16.949Z,14.70
2022-09-22T03:24:44.507Z,14.80
2022-09-22T03:27:12.081Z,14.90
2022-09-22T03:29:39.698Z,14.90
2022-09-22T03:32:07.383Z,14.90
2022-09-22T03:34:34.948Z,14.80
2022-09-22T03:37:04.094Z,14.70
2022-09-22T03:39:31.614Z,14.80
2022-09-22T03:41:59.359Z,14.90
2022-09-22T03:44:27.292Z,14.80
2022-09-22T03:46:54.876Z,14.80
2022-09-22T03:49:22.601Z,14.80
2022-09-22T03:51:50.139Z,14.90
2022-09-22T03:54:19.198Z,14.80
2022-09-22T03:56:46.792Z,14.60
2022-09-22T03:59:14.943Z,14.60
2022-09-22T04:01:43.461Z,14.60
2022-09-22T04:04:12.318Z,14.60
2022-09-22T04:06:39.945Z,14.50
2022-09-22T04:09:09.887Z,14.50
2022-09-22T04:11:39.019Z,14.60
2022-09-22T04:14:06.622Z,14.60
2022-09-22T04:16:46.285Z,14.50
2022-09-22T04:19:14.224Z,14.70
2022-09-22T04:21:42.097Z,14.70
2022-09-22T04:24:11.387Z,14.70
2022-09-22T04:26:47.723Z,14.80
2022-09-22T04:29:24.223Z,14.70
2022-09-22T04:31:51.833Z,14.60
2022-09-22T04:34:19.485Z,14.50
2022-09-22T04:36:47.304Z,14.40
2022-09-22T04:39:15.044Z,14.40
2022-09-22T04:41:44.302Z,14.40
2022-09-22T04:44:12.103Z,14.30
2022-09-22T04:46:39.844Z,14.40
2022-09-22T04:49:07.602Z,14.40
2022-09-22T04:51:35.733Z,14.30
2022-09-22T04:54:03.883Z,14.30
2022-09-22T04:56:31.692Z,14.30
2022-09-22T04:59:01.005Z,14.20
2022-09-22T05:01:28.761Z,14.20
2022-09-22T05:03:56.630Z,14.20
2022-09-22T05:06:24.246Z,14.20
2022-09-22T05:08:52.061Z,14.20
2022-09-22T05:11:24.493Z,14.10
2022-09-22T05:13:52.274Z,13.90
2022-09-22T05:16:21.654Z,14.00
2022-09-22T05:18:50.464Z,14.00
2022-09-22T05:21:19.010Z,14.00
2022-09-22T05:23:47.103Z,14.00
2022-09-22T05:26:14.992Z,13.90
2022-09-22T05:28:53.012Z,14.00
2022-09-22T05:31:22.217Z,14.10
2022-09-22T05:33:50.212Z,14.20
2022-09-22T05:36:18.042Z,14.30
2022-09-22T05:38:45.774Z,14.30
2022-09-22T05:41:14.381Z,14.20
2022-09-22T05:43:42.102Z,14.20
2022-09-22T05:46:09.881Z,14.30
2022-09-22T05:48:39.184Z,14.30
2022-09-22T05:51:06.920Z,14.30
2022-09-22T05:53:35.163Z,14.20
2022-09-22T05:56:03.192Z,14.30
2022-09-22T05:58:31.061Z,14.30
2022-09-22T06:00:58.864Z,14.40
2022-09-22T06:03:26.905Z,14.40
2022-09-22T06:05:56.233Z,14.30
2022-09-22T06:08:24.385Z,14.40
2022-09-22T06:10:52.961Z,14.30
2022-09-22T06:13:20.955Z,14.30
2022-09-22T06:15:49.192Z,14.00
2022-09-22T06:18:24.806Z,13.70
2022-09-22T06:20:56.356Z,13.50
2022-09-22T06:23:26.553Z,13.40
2022-09-22T06:25:58.223Z,13.40
2022-09-22T06:28:26.092Z,13.50
2022-09-22T06:30:58.183Z,13.50
2022-09-22T06:33:26.202Z,13.50
2022-09-22T06:35:54.452Z,13.50
2022-09-22T06:40:51.601Z,13.50
2022-09-22T06:46:00.488Z,13.80
2022-09-22T06:48:28.463Z,13.80
2022-09-22T06:50:56.112Z,13.80
2022-09-22T06:53:27.247Z,13.90
2022-09-22T06:55:59.340Z,14.00
2022-09-22T06:58:28.202Z,14.10
2022-09-22T07:00:58.238Z,14.20
2022-09-22T07:03:26.539Z,14.30
2022-09-22T07:05:55.811Z,14.50
2022-09-22T07:08:24.623Z,14.60
2022-09-22T07:10:53.974Z,14.60
2022-09-22T07:13:23.189Z,14.70
2022-09-22T07:15:52.029Z,14.80
2022-09-22T07:18:19.822Z,14.90
2022-09-22T07:20:47.750Z,15.00
2022-09-22T07:23:18.007Z,15.10
2022-09-22T07:25:57.282Z,15.20
2022-09-22T07:28:28.615Z,15.30
2022-09-22T07:30:59.254Z,15.40
2022-09-22T07:33:27.185Z,15.50
2022-09-22T07:36:08.998Z,15.60
2022-09-22T07:38:37.195Z,15.70
2022-09-22T07:41:07.133Z,15.80
2022-09-22T07:43:36.630Z,15.80
2022-09-22T07:46:05.106Z,16.00
2022-09-22T07:48:48.256Z,16.00
2022-09-22T07:51:21.639Z,16.10
2022-09-22T07:53:50.944Z,16.30
2022-09-22T07:56:21.453Z,16.40
2022-09-22T07:58:52.498Z,16.50
2022-09-22T08:01:21.929Z,16.70
2022-09-22T08:03:52.362Z,16.80
2022-09-22T08:06:23.502Z,16.90
2022-09-22T08:08:55.552Z,17.00
2022-09-22T08:11:25.889Z,17.10
2022-09-22T08:13:56.553Z,17.20
2022-09-22T08:16:29.071Z,17.30
2022-09-22T08:18:57.827Z,17.40
2022-09-22T08:21:26.035Z,17.50
2022-09-22T08:23:56.040Z,17.60
2022-09-22T08:26:23.902Z,17.70
2022-09-22T08:28:57.506Z,17.70
2022-09-22T08:31:27.345Z,17.90
2022-09-22T08:33:56.432Z,18.00
2022-09-22T08:36:27.759Z,18.10
2022-09-22T08:38:56.301Z,18.20
2022-09-22T08:41:40.367Z,18.30
2022-09-22T08:44:20.327Z,18.50
2022-09-22T08:46:49.000Z,18.60
2022-09-22T08:49:41.908Z,18.70
2022-09-22T08:52:17.305Z,18.90
2022-09-22T08:54:46.411Z,18.90
2022-09-22T08:57:35.143Z,19.00
2022-09-22T09:00:07.969Z,19.20
2022-09-22T09:02:44.446Z,19.20
2022-09-22T09:05:46.154Z,19.40
2022-09-22T09:08:32.234Z,19.50
2022-09-22T09:11:09.248Z,19.60
2022-09-22T09:13:50.737Z,19.90
2022-09-22T09:16:41.559Z,19.90
2022-09-22T09:19:16.332Z,20.00
2022-09-22T09:21:50.950Z,20.10
2022-09-22T09:27:21.865Z,20.20
2022-09-22T09:30:00.553Z,20.10
2022-09-22T09:32:37.886Z,20.30
2022-09-22T09:35:06.804Z,20.40
2022-09-22T09:37:35.152Z,20.60
2022-09-22T09:40:05.321Z,20.70
2022-09-22T09:42:36.985Z,20.60
2022-09-22T09:45:05.936Z,20.50
2022-09-22T09:47:59.884Z,20.50
2022-09-22T09:50:32.429Z,20.50
2022-09-22T09:53:00.676Z,20.60
2022-09-22T09:55:28.608Z,20.60
2022-09-22T09:58:07.784Z,20.90
2022-09-22T10:00:51.877Z,21.10
2022-09-22T10:03:27.160Z,21.30
2022-09-22T10:06:03.012Z,21.30
2022-09-22T10:08:36.720Z,21.20
2022-09-22T10:11:05.163Z,21.20
2022-09-22T10:13:35.317Z,21.20
2022-09-22T10:16:21.559Z,21.40
2022-09-22T10:18:52.363Z,21.60
2022-09-22T10:21:21.655Z,21.40
2022-09-22T10:23:50.173Z,21.40
2022-09-22T10:26:23.500Z,21.40
2022-09-22T10:29:14.676Z,21.40
2022-09-22T10:31:43.299Z,21.40
2022-09-22T10:34:31.835Z,21.60
2022-09-22T10:37:01.980Z,21.80
2022-09-22T10:39:37.131Z,22.00
2022-09-22T10:42:08.348Z,22.20
2022-09-22T10:44:41.879Z,22.40
2022-09-22T10:47:27.537Z,22.50
2022-09-22T10:50:56.151Z,22.50
2022-09-22T10:53:39.738Z,22.50
2022-09-22T10:56:16.895Z,22.60
2022-09-22T10:59:08.389Z,22.70
2022-09-22T11:01:59.205Z,22.90
2022-09-22T11:04:44.392Z,22.70
2022-09-22T11:07:47.255Z,22.50
2022-09-22T11:10:40.593Z,22.60
2022-09-22T11:13:22.557Z,22.90
2022-09-22T11:16:41.857Z,23.00
2022-09-22T11:19:37.334Z,23.00
2022-09-22T11:22:25.127Z,23.00
2022-09-22T11:25:13.833Z,23.10
2022-09-22T11:27:55.710Z,23.20
2022-09-22T11:30:26.792Z,23.10
2022-09-22T11:33:10.592Z,23.10
2022-09-22T11:36:08.240Z,23.40
2022-09-22T11:39:03.252Z,23.50
2022-09-22T11:41:35.512Z,23.70
2022-09-22T11:44:32.520Z,23.60
2022-09-22T11:47:18.432Z,23.70
2022-09-22T11:50:00.899Z,23.90
2022-09-22T11:52:43.655Z,24.00
2022-09-22T11:55:24.077Z,24.00
2022-09-22T11:57:57.549Z,24.20
2022-09-22T12:00:25.985Z,24.30
2022-09-22T12:03:02.988Z,24.50
2022-09-22T12:05:35.414Z,24.50
2022-09-22T12:08:07.209Z,24.50
2022-09-22T12:10:38.724Z,24.80
2022-09-22T12:13:12.263Z,25.00
2022-09-22T12:16:01.573Z,24.90
2022-09-22T12:18:38.447Z,24.60
2022-09-22T12:21:15.805Z,24.60
2022-09-22T12:23:48.956Z,24.50
2022-09-22T12:26:29.785Z,24.60
2022-09-22T12:28:58.944Z,24.60
2022-09-22T12:31:35.187Z,24.60
2022-09-22T12:34:04.830Z,24.70
2022-09-22T12:36:35.915Z,24.70
2022-09-22T12:39:09.591Z,24.50
2022-09-22T12:41:48.724Z,24.50
2022-09-22T12:44:21.383Z,24.40
2022-09-22T12:46:50.245Z,24.40
2022-09-22T12:49:23.099Z,24.50
2022-09-22T12:51:51.793Z,24.70
2022-09-22T12:54:47.069Z,24.80
2022-09-22T12:57:44.969Z,25.00
2022-09-22T13:00:18.408Z,25.10
2022-09-22T13:02:47.505Z,25.20
2022-09-22T13:05:40.763Z,25.30
2022-09-22T13:08:24.707Z,25.30
2022-09-22T13:10:58.728Z,25.40
2022-09-22T13:13:44.634Z,25.50
2022-09-22T13:16:34.952Z,25.50
2022-09-22T13:19:07.510Z,25.20
2022-09-22T13:21:37.080Z,25.20
2022-09-22T13:24:06.511Z,25.00
2022-09-22T13:26:36.272Z,24.80
2022-09-22T13:29:11.876Z,24.70
2022-09-22T13:31:42.102Z,24.60
2022-09-22T13:34:27.609Z,24.40
2022-09-22T13:36:59.830Z,24.30
2022-09-22T13:39:31.507Z,24.40
2022-09-22T13:42:04.726Z,24.50
2022-09-22T13:44:39.159Z,24.60
2022-09-22T13:47:13.281Z,24.70
2022-09-22T13:49:44.159Z,24.70
2022-09-22T13:52:19.314Z,24.80
2022-09-22T13:54:50.750Z,24.90
2022-09-22T13:57:22.024Z,25.10
2022-09-22T13:59:52.885Z,25.30
2022-09-22T14:02:31.255Z,25.40
2022-09-22T14:05:08.499Z,25.50
2022-09-22T14:07:49.856Z,25.80
2022-09-22T14:10:28.385Z,26.00
2022-09-22T14:12:57.089Z,26.20
2022-09-22T14:15:44.203Z,26.40
2022-09-22T14:18:18.895Z,26.60
2022-09-22T14:20:48.067Z,26.70
2022-09-22T14:23:23.307Z,26.80
2022-09-22T14:25:51.386Z,26.90
2022-09-22T14:28:22.558Z,27.20
2022-09-22T14:30:52.944Z,27.60
2022-09-22T14:33:25.805Z,27.90
2022-09-22T14:36:01.389Z,28.30
2022-09-22T14:38:30.926Z,28.40
2022-09-22T14:41:00.158Z,28.60
2022-09-22T14:43:38.072Z,28.60
2022-09-22T14:46:33.845Z,28.70
2022-09-22T14:49:43.388Z,28.80
2022-09-22T14:52:24.207Z,29.10
2022-09-22T14:54:53.630Z,29.50
2022-09-22T14:57:22.087Z,29.70
2022-09-22T15:00:13.782Z,29.70
2022-09-22T15:02:49.761Z,29.80
2022-09-22T15:05:29.379Z,30.30
2022-09-22T15:07:59.311Z,30.10
2022-09-22T15:10:30.261Z,30.30
2022-09-22T15:13:19.894Z,30.60
2022-09-22T15:15:49.133Z,30.70
2022-09-22T15:18:21.754Z,31.20
2022-09-22T15:20:51.226Z,31.40
2022-09-22T15:23:24.330Z,31.30
2022-09-22T15:25:53.738Z,31.00
2022-09-22T15:28:24.009Z,31.10
2022-09-22T15:30:53.447Z,31.20
2022-09-22T15:33:23.038Z,31.50
2022-09-22T15:35:56.638Z,31.40
2022-09-22T15:38:27.799Z,31.30
2022-09-22T15:40:57.670Z,30.50
2022-09-22T15:43:31.189Z,29.30
2022-09-22T15:46:06.264Z,28.30
2022-09-22T15:48:40.466Z,27.70
2022-09-22T15:51:11.617Z,27.20
2022-09-22T15:53:42.032Z,26.60
2022-09-22T15:56:15.375Z,26.20
2022-09-22T15:58:44.257Z,25.70
2022-09-22T16:01:12.492Z,25.40
2022-09-22T16:03:47.365Z,25.00
2022-09-22T16:06:17.765Z,24.80
2022-09-22T16:08:48.619Z,24.50
2022-09-22T16:11:19.359Z,24.40
2022-09-22T16:13:48.931Z,24.40
2022-09-22T16:16:19.717Z,24.40
2022-09-22T16:18:49.798Z,24.30
2022-09-22T16:21:20.663Z,24.20
2022-09-22T16:23:48.900Z,24.10
2022-09-22T16:26:17.284Z,24.10
2022-09-22T16:28:45.503Z,24.00
2022-09-22T16:31:14.718Z,24.00
2022-09-22T16:33:44.163Z,24.00
2022-09-22T16:36:13.656Z,23.90
2022-09-22T16:38:42.003Z,23.60
2022-09-22T16:41:19.328Z,23.50
2022-09-22T16:43:47.895Z,23.40
2022-09-22T16:46:31.694Z,23.40
2022-09-22T16:49:04.068Z,23.30
2022-09-22T16:51:36.799Z,23.20
2022-09-22T16:54:05.882Z,23.00
2022-09-22T16:56:36.254Z,23.00
2022-09-22T16:59:07.759Z,23.10
2022-09-22T17:01:38.834Z,22.90
2022-09-22T17:04:10.351Z,22.80
2022-09-22T17:06:42.508Z,22.80
2022-09-22T17:09:12.282Z,22.70
2022-09-22T17:11:42.760Z,22.60
2022-09-22T17:14:14.731Z,22.50
2022-09-22T17:16:43.922Z,22.50
2022-09-22T17:19:13.368Z,22.40
2022-09-22T17:21:43.357Z,22.30
2022-09-22T17:24:12.059Z,22.20
2022-09-22T17:26:41.919Z,22.20
2022-09-22T17:29:11.307Z,22.20
2022-09-22T17:31:42.398Z,22.10
2022-09-22T17:34:12.328Z,22.10
2022-09-22T17:36:40.968Z,22.00
2022-09-22T17:39:10.997Z,22.00
2022-09-22T17:41:45.671Z,21.90
2022-09-22T17:44:15.016Z,21.90
2022-09-22T17:47:03.106Z,21.90
2022-09-22T17:49:50.166Z,21.90
2022-09-22T17:52:29.977Z,22.10
2022-09-22T17:55:12.048Z,22.10
2022-09-22T17:57:42.164Z,22.10
2022-09-22T18:00:12.824Z,21.70
2022-09-22T18:02:41.374Z,21.50
2022-09-22T18:05:11.786Z,21.50
2022-09-22T18:07:40.655Z,21.50
2022-09-22T18:10:12.673Z,21.60
2022-09-22T18:12:41.773Z,21.60
2022-09-22T18:15:13.583Z,21.60
2022-09-22T18:17:43.072Z,21.50
2022-09-22T18:20:13.260Z,21.40
2022-09-22T18:22:43.969Z,21.50
2022-09-22T18:25:15.659Z,21.40
2022-09-22T18:27:44.591Z,21.30
2022-09-22T18:30:15.995Z,21.20
2022-09-22T18:32:44.339Z,21.10
2022-09-22T18:35:13.545Z,21.00
2022-09-22T18:37:42.086Z,21.10
2022-09-22T18:40:13.180Z,21.20
2022-09-22T18:42:44.848Z,21.00
2022-09-22T18:45:14.608Z,21.00
2022-09-22T18:47:44.095Z,21.00
2022-09-22T18:50:13.034Z,21.10
2022-09-22T18:52:46.498Z,21.20
2022-09-22T18:55:18.769Z,21.10
2022-09-22T18:57:48.472Z,21.10
2022-09-22T19:00:21.159Z,21.20
2022-09-22T19:02:50.821Z,21.20
2022-09-22T19:05:19.969Z,21.20
2022-09-22T19:07:51.602Z,21.00
2022-09-22T19:10:26.301Z,21.00
2022-09-22T19:12:56.678Z,21.00
2022-09-22T19:15:26.206Z,20.80
2022-09-22T19:17:54.984Z,20.80
2022-09-22T19:20:24.338Z,20.80
2022-09-22T19:22:54.548Z,20.90
2022-09-22T19:25:24.751Z,21.00
2022-09-22T19:27:53.370Z,20.90
2022-09-22T19:30:24.819Z,20.90
2022-09-22T19:32:55.361Z,20.80
2022-09-22T19:35:25.434Z,20.80
2022-09-22T19:37:54.838Z,20.70
2022-09-22T19:40:25.205Z,20.70
2022-09-22T19:42:54.892Z,20.70
2022-09-22T19:45:25.667Z,20.60
2022-09-22T19:47:59.019Z,20.70
2022-09-22T19:50:27.491Z,20.60
2022-09-22T19:52:56.266Z,20.50
2022-09-22T19:55:26.756Z,20.40
2022-09-22T19:57:56.061Z,20.20
2022-09-22T20:00:28.579Z,20.20
2022-09-22T20:03:01.199Z,20.30
2022-09-22T20:05:38.257Z,20.30
2022-09-22T20:08:19.158Z,20.40
2022-09-22T20:11:06.179Z,20.40
2022-09-22T20:14:03.650Z,20.40
2022-09-22T20:16:33.879Z,20.40
2022-09-22T20:19:03.702Z,20.30
2022-09-22T20:21:34.212Z,20.30
2022-09-22T20:24:05.017Z,20.10
2022-09-22T20:26:36.460Z,19.90
2022-09-22T20:29:06.121Z,19.80
2022-09-22T20:31:35.597Z,19.80
2022-09-22T20:34:15.046Z,19.70
2022-09-22T20:36:44.493Z,19.70
2022-09-22T20:39:16.155Z,19.60
2022-09-22T20:41:46.883Z,19.70
2022-09-22T20:44:16.259Z,19.60
2022-09-22T20:46:47.570Z,19.60
2022-09-22T20:49:16.252Z,19.40
2022-09-22T20:51:45.196Z,19.50
2022-09-22T20:54:13.846Z,19.40
2022-09-22T20:56:43.121Z,19.30
2022-09-22T20:59:14.021Z,19.30
2022-09-22T21:01:43.324Z,19.30
2022-09-22T21:04:16.134Z,19.30
2022-09-22T21:06:45.413Z,19.20
2022-09-22T21:09:32.393Z,19.10
2022-09-22T21:12:01.216Z,19.00
2022-09-22T21:14:32.259Z,18.90
2022-09-22T21:17:05.215Z,18.90
2022-09-22T21:19:34.788Z,19.00
2022-09-22T21:22:03.493Z,19.10
2022-09-22T21:24:32.994Z,19.00
2022-09-22T21:27:01.423Z,19.00
2022-09-22T21:29:32.163Z,19.00
2022-09-22T21:32:00.868Z,19.00
2022-09-22T21:34:30.018Z,19.00
2022-09-22T21:36:58.569Z,19.00
2022-09-22T21:39:26.899Z,19.00
2022-09-22T21:41:55.493Z,19.00
2022-09-22T21:44:24.355Z,19.00
2022-09-22T21:46:54.660Z,18.90
2022-09-22T21:49:23.442Z,18.70
2022-09-22T21:51:51.783Z,18.60
2022-09-22T21:54:20.670Z,18.70
2022-09-22T21:56:50.883Z,18.60
2022-09-22T21:59:20.184Z,18.60
2022-09-22T22:01:48.676Z,18.60
2022-09-22T22:04:18.968Z,18.50
2022-09-22T22:06:47.782Z,18.50
2022-09-22T22:09:17.953Z,18.60
2022-09-22T22:11:50.963Z,18.50
2022-09-22T22:14:20.425Z,18.60
2022-09-22T22:16:50.796Z,18.40
2022-09-22T22:19:22.207Z,18.40
2022-09-22T22:21:51.204Z,18.50
2022-09-22T22:24:29.183Z,18.50
2022-09-22T22:27:01.652Z,18.40
2022-09-22T22:29:35.054Z,18.30
2022-09-22T22:32:04.532Z,18.40
2022-09-22T22:34:34.421Z,18.50
2022-09-22T22:37:04.394Z,18.50
2022-09-22T22:39:32.869Z,18.40
2022-09-22T22:42:01.075Z,18.50
2022-09-22T22:44:29.284Z,18.50
2022-09-22T22:46:57.744Z,18.50
2022-09-22T22:49:27.481Z,18.40
2022-09-22T22:51:57.419Z,18.30
2022-09-22T22:54:25.760Z,18.10
2022-09-22T22:56:54.156Z,18.10
2022-09-22T22:59:22.415Z,18.10
2022-09-22T23:01:57.292Z,17.90
2022-09-22T23:04:25.777Z,17.70
2022-09-22T23:06:53.916Z,17.60
2022-09-22T23:09:24.680Z,17.60
2022-09-22T23:11:53.927Z,17.60
2022-09-22T23:14:22.099Z,17.40
2022-09-22T23:16:50.785Z,17.40
2022-09-22T23:19:19.686Z,17.40
2022-09-22T23:21:48.103Z,17.40
2022-09-22T23:26:54.740Z,17.40
2022-09-22T23:31:51.554Z,17.20
2022-09-22T23:34:21.197Z,17.20
2022-09-22T23:36:49.511Z,17.30
2022-09-22T23:39:17.707Z,17.30
2022-09-22T23:41:47.504Z,17.10
2022-09-22T23:44:17.353Z,17.00
2022-09-22T23:46:45.810Z,17.00
2022-09-22T23:49:14.056Z,17.00
2022-09-22T23:51:44.051Z,17.00
2022-09-22T23:54:14.410Z,16.90
2022-09-22T23:56:43.342Z,16.90
2022-09-22T23:59:11.665Z,16.80
